Lakeway's Hourly Summary for Tuesday, July 10, 2018
Hour Temp
(f)
RH
(%)
Solar Rad.
(MJ/m2)
Rainfall
(in)
Wind
(mph)
7/10/2018 12:00 AM 72 98 0 0 0.25
7/10/2018 1:00 AM 72 98 0 0 0.21
7/10/2018 2:00 AM 71 99 0 0 0.01
7/10/2018 3:00 AM 71 99 0 0 0
7/10/2018 4:00 AM 71 99 0 0 0
7/10/2018 5:00 AM 0 0 0 0 0
7/10/2018 6:00 AM 71 99 0 0 0
7/10/2018 7:00 AM 71 99 0.13 0 0
7/10/2018 8:00 AM 74 99 0.45 0 0.12
7/10/2018 9:00 AM 78 91 1.42 0 0.58
7/10/2018 10:00 AM 82 73 2.2 0 0.58
7/10/2018 11:00 AM 86 64 2.76 0 0.98
7/10/2018 12:00 PM 88 55 3.11 0 1.42
7/10/2018 1:00 PM 91 49 3.21 0 1.58
7/10/2018 2:00 PM 92 45 3.21 0 1.58
7/10/2018 3:00 PM 92 43 2.79 0 1.89
7/10/2018 4:00 PM 92 42 2.58 0 2.67
7/10/2018 5:00 PM 92 39 2.53 0 2.67
7/10/2018 6:00 PM 92 39 1.74 0 2.41
7/10/2018 7:00 PM 91 40 1.23 0 2.12
7/10/2018 8:00 PM 89 48 0.47 0 1.86
7/10/2018 9:00 PM 86 56 0.06 0 1.3
7/10/2018 10:00 PM 84 62 0 0 1.6
7/10/2018 11:00 PM 82 70 0 0 2.73
Data Summary 78 66 27.89 0.00 1.11